sensor_id;sensor_type;location;lat;lon;timestamp;temperature;humidity
9762;DHT22;4920;49.594;11.022;2023-02-22T00:01:22;3.60;99.90
9762;DHT22;4920;49.594;11.022;2023-02-22T00:04:05;3.60;99.90
9762;DHT22;4920;49.594;11.022;2023-02-22T00:06:39;3.60;99.90
9762;DHT22;4920;49.594;11.022;2023-02-22T00:09:07;3.50;99.90
9762;DHT22;4920;49.594;11.022;2023-02-22T00:11:37;3.50;99.90
9762;DHT22;4920;49.594;11.022;2023-02-22T00:14:05;3.40;99.90
9762;DHT22;4920;49.594;11.022;2023-02-22T00:16:34;3.40;99.90
9762;DHT22;4920;49.594;11.022;2023-02-22T00:19:03;3.30;99.90
9762;DHT22;4920;49.594;11.022;2023-02-22T00:21:32;3.20;99.90
9762;DHT22;4920;49.594;11.022;2023-02-22T00:24:02;3.20;99.90
9762;DHT22;4920;49.594;11.022;2023-02-22T00:26:50;3.20;99.90
9762;DHT22;4920;49.594;11.022;2023-02-22T00:29:22;3.20;99.90
9762;DHT22;4920;49.594;11.022;2023-02-22T00:31:51;3.10;99.90
9762;DHT22;4920;49.594;11.022;2023-02-22T00:34:20;3.10;99.90
9762;DHT22;4920;49.594;11.022;2023-02-22T00:36:50;3.10;99.90
9762;DHT22;4920;49.594;11.022;2023-02-22T00:39:21;3.00;99.90
9762;DHT22;4920;49.594;11.022;2023-02-22T00:41:50;3.00;99.90
9762;DHT22;4920;49.594;11.022;2023-02-22T00:44:18;2.90;99.90
9762;DHT22;4920;49.594;11.022;2023-02-22T00:46:47;2.90;99.90
9762;DHT22;4920;49.594;11.022;2023-02-22T00:49:16;2.90;99.90
9762;DHT22;4920;49.594;11.022;2023-02-22T00:51:45;2.80;99.90
9762;DHT22;4920;49.594;11.022;2023-02-22T00:54:13;2.80;99.90
9762;DHT22;4920;49.594;11.022;2023-02-22T00:56:46;2.70;99.90
9762;DHT22;4920;49.594;11.022;2023-02-22T00:59:16;2.70;99.90
9762;DHT22;4920;49.594;11.022;2023-02-22T01:01:45;2.70;99.90
9762;DHT22;4920;49.594;11.022;2023-02-22T01:04:14;2.60;99.90
9762;DHT22;4920;49.594;11.022;2023-02-22T01:06:44;2.60;99.90
9762;DHT22;4920;49.594;11.022;2023-02-22T01:09:13;2.60;99.90
9762;DHT22;4920;49.594;11.022;2023-02-22T01:11:42;2.50;99.90
9762;DHT22;4920;49.594;11.022;2023-02-22T01:14:13;2.50;99.90
9762;DHT22;4920;49.594;11.022;2023-02-22T01:16:42;2.50;99.90
9762;DHT22;4920;49.594;11.022;2023-02-22T01:19:10;2.50;99.90
9762;DHT22;4920;49.594;11.022;2023-02-22T01:21:39;2.50;99.90
9762;DHT22;4920;49.594;11.022;2023-02-22T01:24:08;2.40;99.90
9762;DHT22;4920;49.594;11.022;2023-02-22T01:26:37;2.50;99.90
9762;DHT22;4920;49.594;11.022;2023-02-22T01:29:06;2.40;99.90
9762;DHT22;4920;49.594;11.022;2023-02-22T01:31:37;2.50;99.90
9762;DHT22;4920;49.594;11.022;2023-02-22T01:34:06;2.50;99.90
9762;DHT22;4920;49.594;11.022;2023-02-22T01:36:36;2.50;99.90
9762;DHT22;4920;49.594;11.022;2023-02-22T01:39:07;2.40;99.90
9762;DHT22;4920;49.594;11.022;2023-02-22T01:41:36;2.40;99.90
9762;DHT22;4920;49.594;11.022;2023-02-22T01:44:20;2.40;99.90
9762;DHT22;4920;49.594;11.022;2023-02-22T01:46:54;2.50;99.90
9762;DHT22;4920;49.594;11.022;2023-02-22T01:49:23;2.50;99.90
9762;DHT22;4920;49.594;11.022;2023-02-22T01:51:55;2.60;99.90
9762;DHT22;4920;49.594;11.022;2023-02-22T01:54:27;2.60;99.90
9762;DHT22;4920;49.594;11.022;2023-02-22T01:57:01;2.60;99.90
9762;DHT22;4920;49.594;11.022;2023-02-22T01:59:35;2.70;99.90
9762;DHT22;4920;49.594;11.022;2023-02-22T02:02:06;2.70;99.90
9762;DHT22;4920;49.594;11.022;2023-02-22T02:04:36;2.60;99.90
9762;DHT22;4920;49.594;11.022;2023-02-22T02:07:07;2.50;99.90
9762;DHT22;4920;49.594;11.022;2023-02-22T02:09:41;2.40;99.90
9762;DHT22;4920;49.594;11.022;2023-02-22T02:12:14;2.40;99.90
9762;DHT22;4920;49.594;11.022;2023-02-22T02:14:43;2.30;99.90
9762;DHT22;4920;49.594;11.022;2023-02-22T02:17:21;2.30;99.90
9762;DHT22;4920;49.594;11.022;2023-02-22T02:19:56;2.20;99.90
9762;DHT22;4920;49.594;11.022;2023-02-22T02:22:37;2.20;99.90
9762;DHT22;4920;49.594;11.022;2023-02-22T02:25:31;2.10;99.90
9762;DHT22;4920;49.594;11.022;2023-02-22T02:31:26;2.00;99.90
9762;DHT22;4920;49.594;11.022;2023-02-22T02:34:03;2.10;99.90
9762;DHT22;4920;49.594;11.022;2023-02-22T02:36:36;2.10;99.90
9762;DHT22;4920;49.594;11.022;2023-02-22T02:39:17;2.10;99.90
9762;DHT22;4920;49.594;11.022;2023-02-22T02:41:50;2.10;99.90
9762;DHT22;4920;49.594;11.022;2023-02-22T02:44:23;2.00;99.90
9762;DHT22;4920;49.594;11.022;2023-02-22T02:46:57;2.00;99.90
9762;DHT22;4920;49.594;11.022;2023-02-22T02:49:32;2.00;99.90
9762;DHT22;4920;49.594;11.022;2023-02-22T02:52:04;1.90;99.90
9762;DHT22;4920;49.594;11.022;2023-02-22T02:54:36;1.90;99.90
9762;DHT22;4920;49.594;11.022;2023-02-22T02:57:06;1.90;99.90
9762;DHT22;4920;49.594;11.022;2023-02-22T02:59:37;1.90;99.90
9762;DHT22;4920;49.594;11.022;2023-02-22T03:02:40;1.90;99.90
9762;DHT22;4920;49.594;11.022;2023-02-22T03:05:22;1.80;99.90
9762;DHT22;4920;49.594;11.022;2023-02-22T03:07:55;1.80;99.90
9762;DHT22;4920;49.594;11.022;2023-02-22T03:10:42;1.80;99.90
9762;DHT22;4920;49.594;11.022;2023-02-22T03:13:18;1.80;99.90
9762;DHT22;4920;49.594;11.022;2023-02-22T03:15:55;1.70;99.90
9762;DHT22;4920;49.594;11.022;2023-02-22T03:18:40;1.70;99.90
9762;DHT22;4920;49.594;11.022;2023-02-22T03:21:16;1.70;99.90
9762;DHT22;4920;49.594;11.022;2023-02-22T03:23:52;1.70;99.90
9762;DHT22;4920;49.594;11.022;2023-02-22T03:26:30;1.70;99.90
9762;DHT22;4920;49.594;11.022;2023-02-22T03:29:04;1.70;99.90
9762;DHT22;4920;49.594;11.022;2023-02-22T03:31:38;1.60;99.90
9762;DHT22;4920;49.594;11.022;2023-02-22T03:34:12;1.60;99.90
9762;DHT22;4920;49.594;11.022;2023-02-22T03:36:46;1.60;99.90
9762;DHT22;4920;49.594;11.022;2023-02-22T03:39:17;1.60;99.90
9762;DHT22;4920;49.594;11.022;2023-02-22T03:41:48;1.60;99.90
9762;DHT22;4920;49.594;11.022;2023-02-22T03:44:24;1.60;99.90
9762;DHT22;4920;49.594;11.022;2023-02-22T03:46:55;1.60;99.90
9762;DHT22;4920;49.594;11.022;2023-02-22T03:49:31;1.60;99.90
9762;DHT22;4920;49.594;11.022;2023-02-22T03:52:03;1.50;99.90
9762;DHT22;4920;49.594;11.022;2023-02-22T03:54:34;1.60;99.90
9762;DHT22;4920;49.594;11.022;2023-02-22T03:57:07;1.60;99.90
9762;DHT22;4920;49.594;11.022;2023-02-22T03:59:40;1.60;99.90
9762;DHT22;4920;49.594;11.022;2023-02-22T04:02:09;1.50;99.90
9762;DHT22;4920;49.594;11.022;2023-02-22T04:04:40;1.60;99.90
9762;DHT22;4920;49.594;11.022;2023-02-22T04:07:08;1.50;99.90
9762;DHT22;4920;49.594;11.022;2023-02-22T04:09:38;1.50;99.90
9762;DHT22;4920;49.594;11.022;2023-02-22T04:12:08;1.60;99.90
9762;DHT22;4920;49.594;11.022;2023-02-22T04:14:51;1.60;99.90
9762;DHT22;4920;49.594;11.022;2023-02-22T04:17:21;1.50;99.90
9762;DHT22;4920;49.594;11.022;2023-02-22T04:19:51;1.50;99.90
9762;DHT22;4920;49.594;11.022;2023-02-22T04:22:22;1.50;99.90
9762;DHT22;4920;49.594;11.022;2023-02-22T04:24:51;1.50;99.90
9762;DHT22;4920;49.594;11.022;2023-02-22T04:27:21;1.50;99.90
9762;DHT22;4920;49.594;11.022;2023-02-22T04:29:49;1.50;99.90
9762;DHT22;4920;49.594;11.022;2023-02-22T04:32:18;1.40;99.90
9762;DHT22;4920;49.594;11.022;2023-02-22T04:34:47;1.40;99.90
9762;DHT22;4920;49.594;11.022;2023-02-22T04:37:17;1.40;99.90
9762;DHT22;4920;49.594;11.022;2023-02-22T04:39:46;1.40;99.90
9762;DHT22;4920;49.594;11.022;2023-02-22T04:42:16;1.40;99.90
9762;DHT22;4920;49.594;11.022;2023-02-22T04:44:45;1.30;99.90
9762;DHT22;4920;49.594;11.022;2023-02-22T04:47:13;1.30;99.90
9762;DHT22;4920;49.594;11.022;2023-02-22T04:49:43;1.20;99.90
9762;DHT22;4920;49.594;11.022;2023-02-22T04:52:12;1.20;99.90
9762;DHT22;4920;49.594;11.022;2023-02-22T04:54:43;1.20;99.90
9762;DHT22;4920;49.594;11.022;2023-02-22T04:57:12;1.20;99.90
9762;DHT22;4920;49.594;11.022;2023-02-22T04:59:42;1.10;99.90
9762;DHT22;4920;49.594;11.022;2023-02-22T05:02:11;1.20;99.90
9762;DHT22;4920;49.594;11.022;2023-02-22T05:04:40;1.20;99.90
9762;DHT22;4920;49.594;11.022;2023-02-22T05:07:09;1.20;99.90
9762;DHT22;4920;49.594;11.022;2023-02-22T05:09:37;1.20;99.90
9762;DHT22;4920;49.594;11.022;2023-02-22T05:12:07;1.30;99.90
9762;DHT22;4920;49.594;11.022;2023-02-22T05:14:38;1.30;99.90
9762;DHT22;4920;49.594;11.022;2023-02-22T05:17:07;1.30;99.90
9762;DHT22;4920;49.594;11.022;2023-02-22T05:19:36;1.20;99.90
9762;DHT22;4920;49.594;11.022;2023-02-22T05:22:04;1.20;99.90
9762;DHT22;4920;49.594;11.022;2023-02-22T05:24:33;1.30;99.90
9762;DHT22;4920;49.594;11.022;2023-02-22T05:27:02;1.30;99.90
9762;DHT22;4920;49.594;11.022;2023-02-22T05:29:32;1.30;99.90
9762;DHT22;4920;49.594;11.022;2023-02-22T05:32:01;1.30;99.90
9762;DHT22;4920;49.594;11.022;2023-02-22T05:34:29;1.20;99.90
9762;DHT22;4920;49.594;11.022;2023-02-22T05:36:58;1.20;99.90
9762;DHT22;4920;49.594;11.022;2023-02-22T05:39:27;1.20;99.90
9762;DHT22;4920;49.594;11.022;2023-02-22T05:41:56;1.20;99.90
9762;DHT22;4920;49.594;11.022;2023-02-22T05:44:25;1.10;99.90
9762;DHT22;4920;49.594;11.022;2023-02-22T05:46:55;1.20;99.90
9762;DHT22;4920;49.594;11.022;2023-02-22T05:49:24;1.20;99.90
9762;DHT22;4920;49.594;11.022;2023-02-22T05:51:53;1.20;99.90
9762;DHT22;4920;49.594;11.022;2023-02-22T05:54:25;1.20;99.90
9762;DHT22;4920;49.594;11.022;2023-02-22T05:56:54;1.20;99.90
9762;DHT22;4920;49.594;11.022;2023-02-22T05:59:22;1.20;99.90
9762;DHT22;4920;49.594;11.022;2023-02-22T06:01:51;1.20;99.90
9762;DHT22;4920;49.594;11.022;2023-02-22T06:04:21;1.30;99.90
9762;DHT22;4920;49.594;11.022;2023-02-22T06:06:50;1.30;99.90
9762;DHT22;4920;49.594;11.022;2023-02-22T06:09:18;1.30;99.90
9762;DHT22;4920;49.594;11.022;2023-02-22T06:11:47;1.30;99.90
9762;DHT22;4920;49.594;11.022;2023-02-22T06:14:16;1.30;99.90
9762;DHT22;4920;49.594;11.022;2023-02-22T06:16:51;1.30;99.90
9762;DHT22;4920;49.594;11.022;2023-02-22T06:19:21;1.30;99.90
9762;DHT22;4920;49.594;11.022;2023-02-22T06:22:16;1.30;99.90
9762;DHT22;4920;49.594;11.022;2023-02-22T06:24:45;1.40;99.90
9762;DHT22;4920;49.594;11.022;2023-02-22T06:27:14;1.40;99.90
9762;DHT22;4920;49.594;11.022;2023-02-22T06:29:44;1.40;99.90
9762;DHT22;4920;49.594;11.022;2023-02-22T06:32:13;1.40;99.90
9762;DHT22;4920;49.594;11.022;2023-02-22T06:34:43;1.50;99.90
9762;DHT22;4920;49.594;11.022;2023-02-22T06:37:12;1.60;99.90
9762;DHT22;4920;49.594;11.022;2023-02-22T06:39:40;1.70;99.90
9762;DHT22;4920;49.594;11.022;2023-02-22T06:42:09;1.80;99.90
9762;DHT22;4920;49.594;11.022;2023-02-22T06:44:38;1.90;99.90
9762;DHT22;4920;49.594;11.022;2023-02-22T06:47:07;2.00;99.90
9762;DHT22;4920;49.594;11.022;2023-02-22T06:49:35;2.00;99.90
9762;DHT22;4920;49.594;11.022;2023-02-22T06:52:06;2.10;99.90
9762;DHT22;4920;49.594;11.022;2023-02-22T06:54:37;2.10;99.90
9762;DHT22;4920;49.594;11.022;2023-02-22T06:57:06;2.20;99.90
9762;DHT22;4920;49.594;11.022;2023-02-22T06:59:36;2.20;99.90
9762;DHT22;4920;49.594;11.022;2023-02-22T07:02:05;2.30;99.90
9762;DHT22;4920;49.594;11.022;2023-02-22T07:04:40;2.40;99.90
9762;DHT22;4920;49.594;11.022;2023-02-22T07:07:11;2.40;99.90
9762;DHT22;4920;49.594;11.022;2023-02-22T07:09:40;2.50;99.90
9762;DHT22;4920;49.594;11.022;2023-02-22T07:12:11;2.60;99.90
9762;DHT22;4920;49.594;11.022;2023-02-22T07:14:40;2.70;99.90
9762;DHT22;4920;49.594;11.022;2023-02-22T07:17:08;2.70;99.90
9762;DHT22;4920;49.594;11.022;2023-02-22T07:19:37;2.80;99.90
9762;DHT22;4920;49.594;11.022;2023-02-22T07:22:06;2.90;99.90
9762;DHT22;4920;49.594;11.022;2023-02-22T07:24:36;3.00;99.90
9762;DHT22;4920;49.594;11.022;2023-02-22T07:27:07;3.10;99.90
9762;DHT22;4920;49.594;11.022;2023-02-22T07:29:35;3.20;99.90
9762;DHT22;4920;49.594;11.022;2023-02-22T07:32:04;3.30;99.90
9762;DHT22;4920;49.594;11.022;2023-02-22T07:34:33;3.30;99.90
9762;DHT22;4920;49.594;11.022;2023-02-22T07:37:05;3.40;99.90
9762;DHT22;4920;49.594;11.022;2023-02-22T07:39:36;3.50;99.90
9762;DHT22;4920;49.594;11.022;2023-02-22T07:42:04;3.60;99.90
9762;DHT22;4920;49.594;11.022;2023-02-22T07:44:36;3.70;99.90
9762;DHT22;4920;49.594;11.022;2023-02-22T07:47:05;3.80;99.90
9762;DHT22;4920;49.594;11.022;2023-02-22T07:49:35;3.90;99.90
9762;DHT22;4920;49.594;11.022;2023-02-22T07:52:34;4.00;99.90
9762;DHT22;4920;49.594;11.022;2023-02-22T07:55:05;4.10;99.90
9762;DHT22;4920;49.594;11.022;2023-02-22T07:57:33;4.30;99.90
9762;DHT22;4920;49.594;11.022;2023-02-22T08:00:04;4.40;99.90
9762;DHT22;4920;49.594;11.022;2023-02-22T08:02:38;4.60;99.90
9762;DHT22;4920;49.594;11.022;2023-02-22T08:05:07;4.80;99.90
9762;DHT22;4920;49.594;11.022;2023-02-22T08:07:37;5.00;99.90
9762;DHT22;4920;49.594;11.022;2023-02-22T08:10:08;5.20;99.90
9762;DHT22;4920;49.594;11.022;2023-02-22T08:12:37;5.30;99.90
9762;DHT22;4920;49.594;11.022;2023-02-22T08:15:07;5.50;99.90
9762;DHT22;4920;49.594;11.022;2023-02-22T08:17:36;5.60;99.90
9762;DHT22;4920;49.594;11.022;2023-02-22T08:20:06;5.70;99.90
9762;DHT22;4920;49.594;11.022;2023-02-22T08:22:34;5.90;99.90
9762;DHT22;4920;49.594;11.022;2023-02-22T08:25:03;6.00;99.90
9762;DHT22;4920;49.594;11.022;2023-02-22T08:28:02;6.20;99.90
9762;DHT22;4920;49.594;11.022;2023-02-22T08:30:32;6.40;99.90
9762;DHT22;4920;49.594;11.022;2023-02-22T08:33:05;6.70;99.90
9762;DHT22;4920;49.594;11.022;2023-02-22T08:35:34;6.90;99.90
9762;DHT22;4920;49.594;11.022;2023-02-22T08:38:05;7.10;99.90
9762;DHT22;4920;49.594;11.022;2023-02-22T08:40:35;7.30;99.90
9762;DHT22;4920;49.594;11.022;2023-02-22T08:43:06;7.50;99.90
9762;DHT22;4920;49.594;11.022;2023-02-22T08:45:35;7.70;99.90
9762;DHT22;4920;49.594;11.022;2023-02-22T08:48:04;7.90;99.90
9762;DHT22;4920;49.594;11.022;2023-02-22T08:50:33;8.00;99.90
9762;DHT22;4920;49.594;11.022;2023-02-22T08:53:03;8.10;99.90
9762;DHT22;4920;49.594;11.022;2023-02-22T08:55:34;8.20;99.90
9762;DHT22;4920;49.594;11.022;2023-02-22T08:58:04;8.40;99.90
9762;DHT22;4920;49.594;11.022;2023-02-22T09:00:38;8.60;99.90
9762;DHT22;4920;49.594;11.022;2023-02-22T09:03:09;8.80;99.90
9762;DHT22;4920;49.594;11.022;2023-02-22T09:05:39;9.00;99.90
9762;DHT22;4920;49.594;11.022;2023-02-22T09:08:08;9.20;99.90
9762;DHT22;4920;49.594;11.022;2023-02-22T09:10:37;9.40;99.90
9762;DHT22;4920;49.594;11.022;2023-02-22T09:13:06;9.60;99.90
9762;DHT22;4920;49.594;11.022;2023-02-22T09:15:37;9.80;99.90
9762;DHT22;4920;49.594;11.022;2023-02-22T09:18:09;10.00;99.90
9762;DHT22;4920;49.594;11.022;2023-02-22T09:20:39;10.30;99.90
9762;DHT22;4920;49.594;11.022;2023-02-22T09:23:08;10.60;99.90
9762;DHT22;4920;49.594;11.022;2023-02-22T09:25:37;10.90;99.90
9762;DHT22;4920;49.594;11.022;2023-02-22T09:28:07;11.20;99.90
9762;DHT22;4920;49.594;11.022;2023-02-22T09:30:38;11.50;99.90
9762;DHT22;4920;49.594;11.022;2023-02-22T09:33:08;11.70;99.90
9762;DHT22;4920;49.594;11.022;2023-02-22T09:35:38;12.00;99.90
9762;DHT22;4920;49.594;11.022;2023-02-22T09:38:09;12.20;99.90
9762;DHT22;4920;49.594;11.022;2023-02-22T09:40:40;12.50;99.90
9762;DHT22;4920;49.594;11.022;2023-02-22T09:43:29;12.70;99.90
9762;DHT22;4920;49.594;11.022;2023-02-22T09:46:14;12.80;99.90
9762;DHT22;4920;49.594;11.022;2023-02-22T09:48:57;13.00;99.90
9762;DHT22;4920;49.594;11.022;2023-02-22T09:51:29;13.20;99.90
9762;DHT22;4920;49.594;11.022;2023-02-22T09:54:03;13.40;99.90
9762;DHT22;4920;49.594;11.022;2023-02-22T09:56:34;13.60;99.90
9762;DHT22;4920;49.594;11.022;2023-02-22T09:59:04;13.60;99.90
9762;DHT22;4920;49.594;11.022;2023-02-22T10:01:39;13.70;99.90
9762;DHT22;4920;49.594;11.022;2023-02-22T10:04:15;13.80;99.90
9762;DHT22;4920;49.594;11.022;2023-02-22T10:06:58;13.90;99.90
9762;DHT22;4920;49.594;11.022;2023-02-22T10:09:36;14.00;99.90
9762;DHT22;4920;49.594;11.022;2023-02-22T10:12:12;14.20;99.90
9762;DHT22;4920;49.594;11.022;2023-02-22T10:14:57;14.30;99.90
9762;DHT22;4920;49.594;11.022;2023-02-22T10:17:35;14.50;99.90
9762;DHT22;4920;49.594;11.022;2023-02-22T10:20:18;14.70;99.90
9762;DHT22;4920;49.594;11.022;2023-02-22T10:23:00;14.80;99.90
9762;DHT22;4920;49.594;11.022;2023-02-22T10:25:35;15.00;99.90
9762;DHT22;4920;49.594;11.022;2023-02-22T10:28:10;15.10;99.90
9762;DHT22;4920;49.594;11.022;2023-02-22T10:30:45;15.20;99.90
9762;DHT22;4920;49.594;11.022;2023-02-22T10:33:24;15.20;99.90
9762;DHT22;4920;49.594;11.022;2023-02-22T10:35:54;15.40;99.90
9762;DHT22;4920;49.594;11.022;2023-02-22T10:38:24;15.50;99.90
9762;DHT22;4920;49.594;11.022;2023-02-22T10:40:56;15.70;99.90
9762;DHT22;4920;49.594;11.022;2023-02-22T10:43:26;15.80;99.90
9762;DHT22;4920;49.594;11.022;2023-02-22T10:45:57;16.00;99.90
9762;DHT22;4920;49.594;11.022;2023-02-22T10:48:33;16.00;99.90
9762;DHT22;4920;49.594;11.022;2023-02-22T10:51:06;16.10;99.90
9762;DHT22;4920;49.594;11.022;2023-02-22T10:53:37;16.30;99.90
9762;DHT22;4920;49.594;11.022;2023-02-22T10:56:17;16.50;99.90
9762;DHT22;4920;49.594;11.022;2023-02-22T10:58:50;16.70;99.90
9762;DHT22;4920;49.594;11.022;2023-02-22T11:01:24;17.00;99.90
9762;DHT22;4920;49.594;11.022;2023-02-22T11:04:02;17.20;99.90
9762;DHT22;4920;49.594;11.022;2023-02-22T11:06:33;17.40;99.90
9762;DHT22;4920;49.594;11.022;2023-02-22T11:09:07;17.40;99.90
9762;DHT22;4920;49.594;11.022;2023-02-22T11:11:39;17.40;99.90
9762;DHT22;4920;49.594;11.022;2023-02-22T11:14:09;17.40;99.90
9762;DHT22;4920;49.594;11.022;2023-02-22T11:16:42;17.50;99.90
9762;DHT22;4920;49.594;11.022;2023-02-22T11:19:23;17.60;99.90
9762;DHT22;4920;49.594;11.022;2023-02-22T11:21:55;17.70;99.90
9762;DHT22;4920;49.594;11.022;2023-02-22T11:24:25;18.00;99.90
9762;DHT22;4920;49.594;11.022;2023-02-22T11:27:06;18.20;99.90
9762;DHT22;4920;49.594;11.022;2023-02-22T11:29:36;18.50;99.90
9762;DHT22;4920;49.594;11.022;2023-02-22T11:32:12;18.80;99.90
9762;DHT22;4920;49.594;11.022;2023-02-22T11:34:50;19.10;99.90
9762;DHT22;4920;49.594;11.022;2023-02-22T11:37:35;19.30;99.90
9762;DHT22;4920;49.594;11.022;2023-02-22T11:40:13;19.50;99.90
9762;DHT22;4920;49.594;11.022;2023-02-22T11:42:44;19.70;99.90
9762;DHT22;4920;49.594;11.022;2023-02-22T11:45:16;19.80;99.90
9762;DHT22;4920;49.594;11.022;2023-02-22T11:51:29;19.80;99.90
9762;DHT22;4920;49.594;11.022;2023-02-22T11:54:15;19.60;99.90
9762;DHT22;4920;49.594;11.022;2023-02-22T11:56:56;19.40;99.90
9762;DHT22;4920;49.594;11.022;2023-02-22T11:59:34;19.20;99.90
9762;DHT22;4920;49.594;11.022;2023-02-22T12:02:21;19.10;99.90
9762;DHT22;4920;49.594;11.022;2023-02-22T12:05:06;19.10;99.90
9762;DHT22;4920;49.594;11.022;2023-02-22T12:07:53;19.10;99.90
9762;DHT22;4920;49.594;11.022;2023-02-22T12:10:39;18.90;99.90
9762;DHT22;4920;49.594;11.022;2023-02-22T12:13:24;18.80;99.90
9762;DHT22;4920;49.594;11.022;2023-02-22T12:16:05;18.80;99.90
9762;DHT22;4920;49.594;11.022;2023-02-22T12:18:44;19.00;99.90
9762;DHT22;4920;49.594;11.022;2023-02-22T12:21:18;19.00;99.90
9762;DHT22;4920;49.594;11.022;2023-02-22T12:23:52;18.90;99.90
9762;DHT22;4920;49.594;11.022;2023-02-22T12:26:25;18.80;99.90
9762;DHT22;4920;49.594;11.022;2023-02-22T12:29:02;18.70;99.90
9762;DHT22;4920;49.594;11.022;2023-02-22T12:31:36;18.70;99.90
9762;DHT22;4920;49.594;11.022;2023-02-22T12:34:12;18.70;99.90
9762;DHT22;4920;49.594;11.022;2023-02-22T12:36:46;18.50;99.90
9762;DHT22;4920;49.594;11.022;2023-02-22T12:39:48;18.50;99.90
9762;DHT22;4920;49.594;11.022;2023-02-22T12:42:24;18.40;99.90
9762;DHT22;4920;49.594;11.022;2023-02-22T12:45:00;18.60;99.90
9762;DHT22;4920;49.594;11.022;2023-02-22T12:47:41;18.80;99.90
9762;DHT22;4920;49.594;11.022;2023-02-22T12:50:18;19.00;99.90
9762;DHT22;4920;49.594;11.022;2023-02-22T12:52:52;19.10;99.90
9762;DHT22;4920;49.594;11.022;2023-02-22T12:55:30;19.30;99.90
9762;DHT22;4920;49.594;11.022;2023-02-22T12:58:08;19.20;99.90
9762;DHT22;4920;49.594;11.022;2023-02-22T13:00:45;19.00;99.90
9762;DHT22;4920;49.594;11.022;2023-02-22T13:03:29;18.90;99.90
9762;DHT22;4920;49.594;11.022;2023-02-22T13:06:15;18.90;99.90
9762;DHT22;4920;49.594;11.022;2023-02-22T13:08:54;18.70;99.90
9762;DHT22;4920;49.594;11.022;2023-02-22T13:11:41;18.70;99.90
9762;DHT22;4920;49.594;11.022;2023-02-22T13:14:21;18.70;99.90
9762;DHT22;4920;49.594;11.022;2023-02-22T13:16:58;18.80;99.90
9762;DHT22;4920;49.594;11.022;2023-02-22T13:19:36;18.70;99.90
9762;DHT22;4920;49.594;11.022;2023-02-22T13:22:12;18.40;99.90
9762;DHT22;4920;49.594;11.022;2023-02-22T13:24:52;18.30;99.90
9762;DHT22;4920;49.594;11.022;2023-02-22T13:27:32;18.20;99.90
9762;DHT22;4920;49.594;11.022;2023-02-22T13:30:03;18.20;99.90
9762;DHT22;4920;49.594;11.022;2023-02-22T13:32:46;18.10;99.90
9762;DHT22;4920;49.594;11.022;2023-02-22T13:35:31;18.10;99.90
9762;DHT22;4920;49.594;11.022;2023-02-22T13:38:33;18.30;99.90
9762;DHT22;4920;49.594;11.022;2023-02-22T13:41:29;18.70;99.90
9762;DHT22;4920;49.594;11.022;2023-02-22T13:44:42;19.20;99.90
9762;DHT22;4920;49.594;11.022;2023-02-22T13:47:40;19.70;99.90
9762;DHT22;4920;49.594;11.022;2023-02-22T13:50:33;20.10;99.90
9762;DHT22;4920;49.594;11.022;2023-02-22T13:53:11;20.20;99.90
9762;DHT22;4920;49.594;11.022;2023-02-22T13:55:45;20.20;99.90
9762;DHT22;4920;49.594;11.022;2023-02-22T13:58:15;20.20;99.90
9762;DHT22;4920;49.594;11.022;2023-02-22T14:00:48;20.00;99.90
9762;DHT22;4920;49.594;11.022;2023-02-22T14:03:37;19.90;99.90
9762;DHT22;4920;49.594;11.022;2023-02-22T14:06:09;19.70;99.90
9762;DHT22;4920;49.594;11.022;2023-02-22T14:08:45;19.50;99.90
9762;DHT22;4920;49.594;11.022;2023-02-22T14:11:48;19.40;99.90
9762;DHT22;4920;49.594;11.022;2023-02-22T14:14:23;19.20;99.90
9762;DHT22;4920;49.594;11.022;2023-02-22T14:17:22;19.00;99.90
9762;DHT22;4920;49.594;11.022;2023-02-22T14:20:23;18.80;99.90
9762;DHT22;4920;49.594;11.022;2023-02-22T14:23:27;18.40;99.90
9762;DHT22;4920;49.594;11.022;2023-02-22T14:26:09;18.30;99.90
9762;DHT22;4920;49.594;11.022;2023-02-22T14:28:41;18.30;99.90
9762;DHT22;4920;49.594;11.022;2023-02-22T14:31:14;18.20;99.90
9762;DHT22;4920;49.594;11.022;2023-02-22T14:34:07;18.10;99.90
9762;DHT22;4920;49.594;11.022;2023-02-22T14:36:50;18.10;99.90
9762;DHT22;4920;49.594;11.022;2023-02-22T14:39:26;18.10;99.90
9762;DHT22;4920;49.594;11.022;2023-02-22T14:42:02;18.00;99.90
9762;DHT22;4920;49.594;11.022;2023-02-22T14:44:36;17.80;99.90
9762;DHT22;4920;49.594;11.022;2023-02-22T14:47:13;17.80;99.90
9762;DHT22;4920;49.594;11.022;2023-02-22T14:49:46;17.80;99.90
9762;DHT22;4920;49.594;11.022;2023-02-22T14:52:23;17.70;99.90
9762;DHT22;4920;49.594;11.022;2023-02-22T14:55:06;17.70;99.90
9762;DHT22;4920;49.594;11.022;2023-02-22T14:57:48;17.60;99.90
9762;DHT22;4920;49.594;11.022;2023-02-22T15:00:22;17.40;99.90
9762;DHT22;4920;49.594;11.022;2023-02-22T15:02:58;17.40;99.90
9762;DHT22;4920;49.594;11.022;2023-02-22T15:05:34;17.20;99.90
9762;DHT22;4920;49.594;11.022;2023-02-22T15:08:06;17.00;99.90
9762;DHT22;4920;49.594;11.022;2023-02-22T15:10:40;16.90;99.90
9762;DHT22;4920;49.594;11.022;2023-02-22T15:13:17;16.80;99.90
9762;DHT22;4920;49.594;11.022;2023-02-22T15:15:47;16.60;99.90
9762;DHT22;4920;49.594;11.022;2023-02-22T15:18:22;16.50;99.90
9762;DHT22;4920;49.594;11.022;2023-02-22T15:20:57;16.30;99.90
9762;DHT22;4920;49.594;11.022;2023-02-22T15:23:28;16.10;99.90
9762;DHT22;4920;49.594;11.022;2023-02-22T15:25:59;16.00;99.90
9762;DHT22;4920;49.594;11.022;2023-02-22T15:28:29;15.80;99.90
9762;DHT22;4920;49.594;11.022;2023-02-22T15:31:26;15.70;99.90
9762;DHT22;4920;49.594;11.022;2023-02-22T15:33:55;15.70;99.90
9762;DHT22;4920;49.594;11.022;2023-02-22T15:36:27;15.70;99.90
9762;DHT22;4920;49.594;11.022;2023-02-22T15:38:57;15.60;99.90
9762;DHT22;4920;49.594;11.022;2023-02-22T15:41:29;15.60;99.90
9762;DHT22;4920;49.594;11.022;2023-02-22T15:44:01;15.50;99.90
9762;DHT22;4920;49.594;11.022;2023-02-22T15:46:47;15.50;99.90
9762;DHT22;4920;49.594;11.022;2023-02-22T15:49:21;15.50;99.90
9762;DHT22;4920;49.594;11.022;2023-02-22T15:52:05;15.40;99.90
9762;DHT22;4920;49.594;11.022;2023-02-22T15:54:40;15.40;99.90
9762;DHT22;4920;49.594;11.022;2023-02-22T15:57:14;15.30;99.90
9762;DHT22;4920;49.594;11.022;2023-02-22T15:59:48;15.30;99.90
9762;DHT22;4920;49.594;11.022;2023-02-22T16:02:35;15.20;99.90
9762;DHT22;4920;49.594;11.022;2023-02-22T16:05:07;15.20;99.90
9762;DHT22;4920;49.594;11.022;2023-02-22T16:07:41;15.10;99.90
9762;DHT22;4920;49.594;11.022;2023-02-22T16:10:21;15.10;99.90
9762;DHT22;4920;49.594;11.022;2023-02-22T16:13:06;15.00;99.90
9762;DHT22;4920;49.594;11.022;2023-02-22T16:15:53;14.90;99.90
9762;DHT22;4920;49.594;11.022;2023-02-22T16:18:26;14.80;99.90
9762;DHT22;4920;49.594;11.022;2023-02-22T16:21:02;14.70;99.90
9762;DHT22;4920;49.594;11.022;2023-02-22T16:23:43;14.60;99.90
9762;DHT22;4920;49.594;11.022;2023-02-22T16:26:33;14.50;99.90
9762;DHT22;4920;49.594;11.022;2023-02-22T16:29:04;14.40;99.90
9762;DHT22;4920;49.594;11.022;2023-02-22T16:31:35;14.30;99.90
9762;DHT22;4920;49.594;11.022;2023-02-22T16:34:06;14.10;99.90
9762;DHT22;4920;49.594;11.022;2023-02-22T16:36:39;13.90;99.90
9762;DHT22;4920;49.594;11.022;2023-02-22T16:39:12;13.80;99.90
9762;DHT22;4920;49.594;11.022;2023-02-22T16:41:42;13.80;99.90
9762;DHT22;4920;49.594;11.022;2023-02-22T16:44:11;13.70;99.90
9762;DHT22;4920;49.594;11.022;2023-02-22T16:46:40;13.70;99.90